Impacts TAF Board
For situational awareness. Not to be used for flight planning purposes.
IDs:

KLAS - Las Vegas/Reid Intl, NV, US

Issued at 2049 UTC 21 May 2022
Updated at 2150 UTC 21 May 2022
Potential Impact None Slight Moderate High
Time2056Z 21/22Z 21/23Z 22/00Z 22/01Z 22/02Z 22/03Z 22/04Z 22/05Z 22/06Z 22/07Z 22/08Z 22/09Z 22/10Z>>
Type OBS PRVL PRVL PRVL PRVL PRVL PRVL PRVL PRVL PRVL PRVL PRVL PRVL PRVL
VIS 10 >6 >6 >6 >6 >6 >6 >6 >6 >6 >6 >6 >6 >6
CIG -- -- -- -- -- -- -- -- -- -- -- -- -- --
Cover FEW FEW FEW FEW FEW FEW FEW FEW FEW FEW FEW FEW FEW FEW
FltCat VFR VFR VFR VFR VFR VFR VFR VFR VFR VFR VFR VFR VFR VFR
WX -- -- -- -- -- -- -- -- -- -- -- -- -- --
WDir VRB 120 120 120 120 120 120 120 VRB VRB VRB VRB VRB VRB
WSpd 4 6 6 6 6 6 6 6 5 5 5 5 5 5
WGst -- -- -- -- -- -- -- -- -- -- -- -- -- --
WSHgt -- -- -- -- -- -- -- -- -- -- -- -- -- --
WSDir -- -- -- -- -- -- -- -- -- -- -- -- -- --
WSSpd -- -- -- -- -- -- -- -- -- -- -- -- -- --
Raw TAF
KLAS 212049Z 2121/2224 12006KT P6SM FEW250
  FM220500 VRB05KT P6SM FEW250


Raw METAR
KLAS 212056Z VRB04KT 10SM FEW250 25/M11 A2990 RMK AO2 SLP109 T02501111 56021
KLAS 211956Z 06006KT 10SM FEW250 24/M11 A2992 RMK AO2 SLP113 T02441111
KLAS 211856Z VRB04KT 10SM FEW250 23/M12 A2993 RMK AO2 SLP117 T02331117

METAR Board
Radar Display
Forecast Discussion
For situational awareness. Not to be used for flight planning purposes.